sensor_id;sensor_type;location;lat;lon;timestamp;P1;durP1;ratioP1;P2;durP2;ratioP2
5762;SDS011;2906;53.282;9.508;2022-07-23T00:00:20;4.13;;;1.65;;
5762;SDS011;2906;53.282;9.508;2022-07-23T00:01:23;3.60;;;1.48;;
5762;SDS011;2906;53.282;9.508;2022-07-23T00:02:24;5.35;;;1.65;;
5762;SDS011;2906;53.282;9.508;2022-07-23T00:03:26;6.80;;;1.80;;
5762;SDS011;2906;53.282;9.508;2022-07-23T00:04:28;4.30;;;1.83;;
5762;SDS011;2906;53.282;9.508;2022-07-23T00:05:34;3.75;;;1.60;;
5762;SDS011;2906;53.282;9.508;2022-07-23T00:06:35;9.50;;;1.90;;
5762;SDS011;2906;53.282;9.508;2022-07-23T00:07:38;3.40;;;1.65;;
5762;SDS011;2906;53.282;9.508;2022-07-23T00:08:39;10.68;;;2.20;;
5762;SDS011;2906;53.282;9.508;2022-07-23T00:09:41;6.00;;;2.08;;
5762;SDS011;2906;53.282;9.508;2022-07-23T00:10:42;8.88;;;2.00;;
5762;SDS011;2906;53.282;9.508;2022-07-23T00:11:45;6.55;;;2.05;;
5762;SDS011;2906;53.282;9.508;2022-07-23T00:12:46;5.47;;;1.70;;
5762;SDS011;2906;53.282;9.508;2022-07-23T00:13:48;6.57;;;2.10;;
5762;SDS011;2906;53.282;9.508;2022-07-23T00:14:50;6.57;;;2.13;;
5762;SDS011;2906;53.282;9.508;2022-07-23T00:15:53;5.38;;;2.00;;
5762;SDS011;2906;53.282;9.508;2022-07-23T00:16:56;8.13;;;2.03;;
5762;SDS011;2906;53.282;9.508;2022-07-23T00:17:57;8.45;;;2.40;;
5762;SDS011;2906;53.282;9.508;2022-07-23T00:18:59;4.15;;;1.67;;
5762;SDS011;2906;53.282;9.508;2022-07-23T00:20:01;4.18;;;2.08;;
5762;SDS011;2906;53.282;9.508;2022-07-23T00:21:03;4.85;;;1.88;;
5762;SDS011;2906;53.282;9.508;2022-07-23T00:22:05;8.75;;;2.22;;
5762;SDS011;2906;53.282;9.508;2022-07-23T00:23:07;11.20;;;2.08;;
5762;SDS011;2906;53.282;9.508;2022-07-23T00:24:08;3.90;;;1.80;;
5762;SDS011;2906;53.282;9.508;2022-07-23T00:25:10;5.13;;;1.90;;
5762;SDS011;2906;53.282;9.508;2022-07-23T00:26:12;6.25;;;2.17;;
5762;SDS011;2906;53.282;9.508;2022-07-23T00:27:14;5.18;;;2.88;;
5762;SDS011;2906;53.282;9.508;2022-07-23T00:28:16;7.40;;;2.30;;
5762;SDS011;2906;53.282;9.508;2022-07-23T00:29:18;10.30;;;2.70;;
5762;SDS011;2906;53.282;9.508;2022-07-23T00:30:19;7.35;;;2.10;;
5762;SDS011;2906;53.282;9.508;2022-07-23T00:31:23;8.05;;;2.25;;
5762;SDS011;2906;53.282;9.508;2022-07-23T00:32:24;15.35;;;2.47;;
5762;SDS011;2906;53.282;9.508;2022-07-23T00:33:26;6.82;;;2.22;;
5762;SDS011;2906;53.282;9.508;2022-07-23T00:34:27;5.40;;;2.65;;
5762;SDS011;2906;53.282;9.508;2022-07-23T00:35:30;4.07;;;2.28;;
5762;SDS011;2906;53.282;9.508;2022-07-23T00:36:32;11.88;;;2.63;;
5762;SDS011;2906;53.282;9.508;2022-07-23T00:37:34;9.05;;;2.97;;
5762;SDS011;2906;53.282;9.508;2022-07-23T00:38:36;7.90;;;2.50;;
5762;SDS011;2906;53.282;9.508;2022-07-23T00:39:38;8.68;;;2.50;;
5762;SDS011;2906;53.282;9.508;2022-07-23T00:40:39;7.07;;;3.10;;
5762;SDS011;2906;53.282;9.508;2022-07-23T00:41:41;4.55;;;2.33;;
5762;SDS011;2906;53.282;9.508;2022-07-23T00:42:45;8.27;;;2.50;;
5762;SDS011;2906;53.282;9.508;2022-07-23T00:43:47;13.32;;;2.97;;
5762;SDS011;2906;53.282;9.508;2022-07-23T00:44:48;7.47;;;2.50;;
5762;SDS011;2906;53.282;9.508;2022-07-23T00:45:50;8.48;;;3.05;;
5762;SDS011;2906;53.282;9.508;2022-07-23T00:46:54;10.32;;;3.50;;
5762;SDS011;2906;53.282;9.508;2022-07-23T00:47:56;2.97;;;2.17;;
5762;SDS011;2906;53.282;9.508;2022-07-23T00:48:57;5.82;;;2.75;;
5762;SDS011;2906;53.282;9.508;2022-07-23T00:49:59;6.25;;;2.85;;
5762;SDS011;2906;53.282;9.508;2022-07-23T00:51:01;5.30;;;2.45;;
5762;SDS011;2906;53.282;9.508;2022-07-23T00:52:03;6.95;;;2.50;;
5762;SDS011;2906;53.282;9.508;2022-07-23T00:53:06;6.82;;;2.63;;
5762;SDS011;2906;53.282;9.508;2022-07-23T00:54:09;10.55;;;3.00;;
5762;SDS011;2906;53.282;9.508;2022-07-23T00:55:11;5.93;;;3.00;;
5762;SDS011;2906;53.282;9.508;2022-07-23T00:56:13;6.15;;;4.28;;
5762;SDS011;2906;53.282;9.508;2022-07-23T00:57:15;12.05;;;2.95;;
5762;SDS011;2906;53.282;9.508;2022-07-23T00:58:17;8.38;;;3.65;;
5762;SDS011;2906;53.282;9.508;2022-07-23T00:59:19;6.90;;;3.13;;
5762;SDS011;2906;53.282;9.508;2022-07-23T01:00:22;5.80;;;3.33;;
5762;SDS011;2906;53.282;9.508;2022-07-23T01:01:23;10.63;;;3.78;;
5762;SDS011;2906;53.282;9.508;2022-07-23T01:02:26;6.47;;;2.90;;
5762;SDS011;2906;53.282;9.508;2022-07-23T01:03:28;9.23;;;3.58;;
5762;SDS011;2906;53.282;9.508;2022-07-23T01:04:31;10.68;;;3.17;;
5762;SDS011;2906;53.282;9.508;2022-07-23T01:05:33;5.15;;;2.80;;
5762;SDS011;2906;53.282;9.508;2022-07-23T01:06:35;9.82;;;3.10;;
5762;SDS011;2906;53.282;9.508;2022-07-23T01:07:37;9.32;;;3.13;;
5762;SDS011;2906;53.282;9.508;2022-07-23T01:08:40;5.28;;;2.85;;
5762;SDS011;2906;53.282;9.508;2022-07-23T01:09:42;5.07;;;3.20;;
5762;SDS011;2906;53.282;9.508;2022-07-23T01:10:45;9.38;;;3.05;;
5762;SDS011;2906;53.282;9.508;2022-07-23T01:11:47;9.00;;;3.33;;
5762;SDS011;2906;53.282;9.508;2022-07-23T01:12:50;14.27;;;3.20;;
5762;SDS011;2906;53.282;9.508;2022-07-23T01:13:51;4.68;;;2.90;;
5762;SDS011;2906;53.282;9.508;2022-07-23T01:14:54;5.95;;;3.10;;
5762;SDS011;2906;53.282;9.508;2022-07-23T01:15:56;6.57;;;3.38;;
5762;SDS011;2906;53.282;9.508;2022-07-23T01:16:59;8.30;;;3.15;;
5762;SDS011;2906;53.282;9.508;2022-07-23T01:18:02;8.18;;;3.13;;
5762;SDS011;2906;53.282;9.508;2022-07-23T01:19:04;5.82;;;2.90;;
5762;SDS011;2906;53.282;9.508;2022-07-23T01:20:06;6.63;;;3.40;;
5762;SDS011;2906;53.282;9.508;2022-07-23T01:21:09;9.30;;;3.50;;
5762;SDS011;2906;53.282;9.508;2022-07-23T01:22:13;5.03;;;3.28;;
5762;SDS011;2906;53.282;9.508;2022-07-23T01:23:17;5.88;;;3.50;;
5762;SDS011;2906;53.282;9.508;2022-07-23T01:24:18;5.53;;;3.33;;
5762;SDS011;2906;53.282;9.508;2022-07-23T01:25:22;6.97;;;3.90;;
5762;SDS011;2906;53.282;9.508;2022-07-23T01:26:23;6.80;;;3.35;;
5762;SDS011;2906;53.282;9.508;2022-07-23T01:27:25;8.85;;;4.13;;
5762;SDS011;2906;53.282;9.508;2022-07-23T01:28:27;11.20;;;3.55;;
5762;SDS011;2906;53.282;9.508;2022-07-23T01:29:29;6.13;;;3.42;;
5762;SDS011;2906;53.282;9.508;2022-07-23T01:30:30;12.88;;;3.40;;
5762;SDS011;2906;53.282;9.508;2022-07-23T01:31:33;12.25;;;3.88;;
5762;SDS011;2906;53.282;9.508;2022-07-23T01:32:34;13.88;;;3.90;;
5762;SDS011;2906;53.282;9.508;2022-07-23T01:33:38;8.00;;;4.55;;
5762;SDS011;2906;53.282;9.508;2022-07-23T01:34:41;6.45;;;3.35;;
5762;SDS011;2906;53.282;9.508;2022-07-23T01:35:42;14.93;;;4.50;;
5762;SDS011;2906;53.282;9.508;2022-07-23T01:36:44;7.63;;;3.30;;
5762;SDS011;2906;53.282;9.508;2022-07-23T01:37:47;8.52;;;3.55;;
5762;SDS011;2906;53.282;9.508;2022-07-23T01:38:50;9.98;;;4.28;;
5762;SDS011;2906;53.282;9.508;2022-07-23T01:39:52;7.72;;;4.30;;
5762;SDS011;2906;53.282;9.508;2022-07-23T01:40:54;7.68;;;3.58;;
5762;SDS011;2906;53.282;9.508;2022-07-23T01:41:56;10.55;;;3.97;;
5762;SDS011;2906;53.282;9.508;2022-07-23T01:42:58;9.60;;;3.55;;
5762;SDS011;2906;53.282;9.508;2022-07-23T01:44:00;15.57;;;3.80;;
5762;SDS011;2906;53.282;9.508;2022-07-23T01:45:03;9.85;;;3.78;;
5762;SDS011;2906;53.282;9.508;2022-07-23T01:46:04;4.00;;;3.28;;
5762;SDS011;2906;53.282;9.508;2022-07-23T01:47:06;6.82;;;4.07;;
5762;SDS011;2906;53.282;9.508;2022-07-23T01:48:08;14.25;;;4.45;;
5762;SDS011;2906;53.282;9.508;2022-07-23T01:49:10;10.82;;;3.90;;
5762;SDS011;2906;53.282;9.508;2022-07-23T01:50:11;12.00;;;3.42;;
5762;SDS011;2906;53.282;9.508;2022-07-23T01:51:13;8.80;;;4.15;;
5762;SDS011;2906;53.282;9.508;2022-07-23T01:52:15;6.63;;;3.88;;
5762;SDS011;2906;53.282;9.508;2022-07-23T01:53:17;6.95;;;3.83;;
5762;SDS011;2906;53.282;9.508;2022-07-23T01:54:19;6.75;;;3.75;;
5762;SDS011;2906;53.282;9.508;2022-07-23T01:55:22;6.60;;;3.25;;
5762;SDS011;2906;53.282;9.508;2022-07-23T01:56:23;6.43;;;3.53;;
5762;SDS011;2906;53.282;9.508;2022-07-23T01:57:25;7.75;;;3.90;;
5762;SDS011;2906;53.282;9.508;2022-07-23T01:58:27;6.60;;;4.38;;
5762;SDS011;2906;53.282;9.508;2022-07-23T01:59:29;9.93;;;4.35;;
5762;SDS011;2906;53.282;9.508;2022-07-23T02:00:31;13.98;;;4.00;;
5762;SDS011;2906;53.282;9.508;2022-07-23T02:01:33;7.65;;;3.85;;
5762;SDS011;2906;53.282;9.508;2022-07-23T02:02:35;7.95;;;4.13;;
5762;SDS011;2906;53.282;9.508;2022-07-23T02:03:37;9.63;;;4.78;;
5762;SDS011;2906;53.282;9.508;2022-07-23T02:04:39;8.90;;;4.70;;
5762;SDS011;2906;53.282;9.508;2022-07-23T02:05:40;7.75;;;4.80;;
5762;SDS011;2906;53.282;9.508;2022-07-23T02:06:43;9.52;;;4.25;;
5762;SDS011;2906;53.282;9.508;2022-07-23T02:07:44;7.57;;;4.50;;
5762;SDS011;2906;53.282;9.508;2022-07-23T02:08:46;5.22;;;3.58;;
5762;SDS011;2906;53.282;9.508;2022-07-23T02:09:49;12.82;;;4.13;;
5762;SDS011;2906;53.282;9.508;2022-07-23T02:10:51;9.48;;;3.80;;
5762;SDS011;2906;53.282;9.508;2022-07-23T02:11:53;8.30;;;3.97;;
5762;SDS011;2906;53.282;9.508;2022-07-23T02:12:55;8.63;;;4.15;;
5762;SDS011;2906;53.282;9.508;2022-07-23T02:13:57;4.95;;;3.42;;
5762;SDS011;2906;53.282;9.508;2022-07-23T02:14:59;7.68;;;3.95;;
5762;SDS011;2906;53.282;9.508;2022-07-23T02:16:00;9.07;;;4.80;;
5762;SDS011;2906;53.282;9.508;2022-07-23T02:17:02;8.32;;;4.20;;
5762;SDS011;2906;53.282;9.508;2022-07-23T02:18:04;8.13;;;4.88;;
5762;SDS011;2906;53.282;9.508;2022-07-23T02:19:07;8.15;;;4.00;;
5762;SDS011;2906;53.282;9.508;2022-07-23T02:20:09;15.52;;;4.20;;
5762;SDS011;2906;53.282;9.508;2022-07-23T02:21:11;9.52;;;3.83;;
5762;SDS011;2906;53.282;9.508;2022-07-23T02:22:13;6.93;;;4.18;;
5762;SDS011;2906;53.282;9.508;2022-07-23T02:23:15;7.38;;;4.00;;
5762;SDS011;2906;53.282;9.508;2022-07-23T02:24:16;6.40;;;4.63;;
5762;SDS011;2906;53.282;9.508;2022-07-23T02:25:20;8.93;;;4.63;;
5762;SDS011;2906;53.282;9.508;2022-07-23T02:26:22;6.32;;;4.47;;
5762;SDS011;2906;53.282;9.508;2022-07-23T02:27:24;10.30;;;4.68;;
5762;SDS011;2906;53.282;9.508;2022-07-23T02:28:25;14.07;;;4.88;;
5762;SDS011;2906;53.282;9.508;2022-07-23T02:29:27;13.50;;;4.70;;
5762;SDS011;2906;53.282;9.508;2022-07-23T02:30:29;9.57;;;5.13;;
5762;SDS011;2906;53.282;9.508;2022-07-23T02:31:31;14.88;;;5.07;;
5762;SDS011;2906;53.282;9.508;2022-07-23T02:32:32;12.57;;;4.60;;
5762;SDS011;2906;53.282;9.508;2022-07-23T02:33:35;10.23;;;4.55;;
5762;SDS011;2906;53.282;9.508;2022-07-23T02:34:36;7.45;;;4.60;;
5762;SDS011;2906;53.282;9.508;2022-07-23T02:35:38;9.98;;;5.00;;
5762;SDS011;2906;53.282;9.508;2022-07-23T02:36:40;10.13;;;4.82;;
5762;SDS011;2906;53.282;9.508;2022-07-23T02:37:42;6.30;;;4.38;;
5762;SDS011;2906;53.282;9.508;2022-07-23T02:38:43;8.45;;;4.63;;
5762;SDS011;2906;53.282;9.508;2022-07-23T02:39:45;10.30;;;4.80;;
5762;SDS011;2906;53.282;9.508;2022-07-23T02:40:49;5.63;;;4.75;;
5762;SDS011;2906;53.282;9.508;2022-07-23T02:41:51;8.68;;;5.05;;
5762;SDS011;2906;53.282;9.508;2022-07-23T02:42:53;8.25;;;5.28;;
5762;SDS011;2906;53.282;9.508;2022-07-23T02:43:55;7.88;;;5.20;;
5762;SDS011;2906;53.282;9.508;2022-07-23T02:44:56;9.70;;;4.60;;
5762;SDS011;2906;53.282;9.508;2022-07-23T02:45:58;9.65;;;4.68;;
5762;SDS011;2906;53.282;9.508;2022-07-23T02:47:01;11.15;;;5.15;;
5762;SDS011;2906;53.282;9.508;2022-07-23T02:48:03;10.68;;;4.60;;
5762;SDS011;2906;53.282;9.508;2022-07-23T02:49:04;14.38;;;5.10;;
5762;SDS011;2906;53.282;9.508;2022-07-23T02:50:07;14.10;;;4.43;;
5762;SDS011;2906;53.282;9.508;2022-07-23T02:51:08;9.73;;;4.97;;
5762;SDS011;2906;53.282;9.508;2022-07-23T02:52:11;6.03;;;4.43;;
5762;SDS011;2906;53.282;9.508;2022-07-23T02:53:12;17.33;;;4.82;;
5762;SDS011;2906;53.282;9.508;2022-07-23T02:54:14;9.38;;;4.65;;
5762;SDS011;2906;53.282;9.508;2022-07-23T02:55:16;7.38;;;4.45;;
5762;SDS011;2906;53.282;9.508;2022-07-23T02:56:19;7.95;;;4.50;;
5762;SDS011;2906;53.282;9.508;2022-07-23T02:57:21;6.30;;;4.53;;
5762;SDS011;2906;53.282;9.508;2022-07-23T02:58:23;20.20;;;6.03;;
5762;SDS011;2906;53.282;9.508;2022-07-23T02:59:26;8.82;;;5.10;;
5762;SDS011;2906;53.282;9.508;2022-07-23T03:00:28;6.15;;;4.40;;
5762;SDS011;2906;53.282;9.508;2022-07-23T03:01:31;8.02;;;5.43;;
5762;SDS011;2906;53.282;9.508;2022-07-23T03:02:32;8.40;;;4.30;;
5762;SDS011;2906;53.282;9.508;2022-07-23T03:03:34;10.05;;;5.47;;
5762;SDS011;2906;53.282;9.508;2022-07-23T03:04:35;12.43;;;5.22;;
5762;SDS011;2906;53.282;9.508;2022-07-23T03:05:37;14.57;;;4.75;;
5762;SDS011;2906;53.282;9.508;2022-07-23T03:06:39;7.70;;;4.97;;
5762;SDS011;2906;53.282;9.508;2022-07-23T03:07:41;10.48;;;5.93;;
5762;SDS011;2906;53.282;9.508;2022-07-23T03:08:42;10.82;;;5.20;;
5762;SDS011;2906;53.282;9.508;2022-07-23T03:09:45;10.63;;;5.00;;
5762;SDS011;2906;53.282;9.508;2022-07-23T03:10:46;8.15;;;4.88;;
5762;SDS011;2906;53.282;9.508;2022-07-23T03:11:49;9.07;;;5.75;;
5762;SDS011;2906;53.282;9.508;2022-07-23T03:12:51;10.75;;;5.45;;
5762;SDS011;2906;53.282;9.508;2022-07-23T03:13:53;11.32;;;5.22;;
5762;SDS011;2906;53.282;9.508;2022-07-23T03:14:55;13.65;;;5.43;;
5762;SDS011;2906;53.282;9.508;2022-07-23T03:15:57;7.65;;;4.65;;
5762;SDS011;2906;53.282;9.508;2022-07-23T03:16:58;13.73;;;5.93;;
5762;SDS011;2906;53.282;9.508;2022-07-23T03:18:00;6.97;;;4.22;;
5762;SDS011;2906;53.282;9.508;2022-07-23T03:19:02;11.00;;;5.10;;
5762;SDS011;2906;53.282;9.508;2022-07-23T03:20:04;6.97;;;4.68;;
5762;SDS011;2906;53.282;9.508;2022-07-23T03:21:06;8.77;;;5.38;;
5762;SDS011;2906;53.282;9.508;2022-07-23T03:22:08;14.57;;;5.55;;
5762;SDS011;2906;53.282;9.508;2022-07-23T03:23:09;7.00;;;4.53;;
5762;SDS011;2906;53.282;9.508;2022-07-23T03:24:12;8.63;;;4.60;;
5762;SDS011;2906;53.282;9.508;2022-07-23T03:25:13;9.38;;;5.30;;
5762;SDS011;2906;53.282;9.508;2022-07-23T03:26:15;8.48;;;5.50;;
5762;SDS011;2906;53.282;9.508;2022-07-23T03:27:18;11.25;;;5.45;;
5762;SDS011;2906;53.282;9.508;2022-07-23T03:28:20;8.48;;;4.70;;
5762;SDS011;2906;53.282;9.508;2022-07-23T03:29:21;7.95;;;5.53;;
5762;SDS011;2906;53.282;9.508;2022-07-23T03:30:24;10.50;;;5.03;;
5762;SDS011;2906;53.282;9.508;2022-07-23T03:31:26;9.63;;;4.70;;
5762;SDS011;2906;53.282;9.508;2022-07-23T03:32:27;15.95;;;5.10;;
5762;SDS011;2906;53.282;9.508;2022-07-23T03:33:29;12.73;;;4.80;;
5762;SDS011;2906;53.282;9.508;2022-07-23T03:34:31;9.80;;;4.85;;
5762;SDS011;2906;53.282;9.508;2022-07-23T03:35:33;11.77;;;5.53;;
5762;SDS011;2906;53.282;9.508;2022-07-23T03:36:34;10.13;;;5.40;;
5762;SDS011;2906;53.282;9.508;2022-07-23T03:37:36;10.30;;;5.70;;
5762;SDS011;2906;53.282;9.508;2022-07-23T03:38:37;8.13;;;5.00;;
5762;SDS011;2906;53.282;9.508;2022-07-23T03:39:40;12.65;;;4.78;;
5762;SDS011;2906;53.282;9.508;2022-07-23T03:40:41;8.05;;;4.85;;
5762;SDS011;2906;53.282;9.508;2022-07-23T03:41:43;13.63;;;5.88;;
5762;SDS011;2906;53.282;9.508;2022-07-23T03:42:46;10.82;;;4.85;;
5762;SDS011;2906;53.282;9.508;2022-07-23T03:43:48;13.65;;;5.30;;
5762;SDS011;2906;53.282;9.508;2022-07-23T03:44:50;6.55;;;5.03;;
5762;SDS011;2906;53.282;9.508;2022-07-23T03:45:52;13.50;;;5.15;;
5762;SDS011;2906;53.282;9.508;2022-07-23T03:46:53;9.10;;;4.78;;
5762;SDS011;2906;53.282;9.508;2022-07-23T03:47:57;9.02;;;5.45;;
5762;SDS011;2906;53.282;9.508;2022-07-23T03:48:59;14.40;;;5.22;;
5762;SDS011;2906;53.282;9.508;2022-07-23T03:50:01;8.07;;;4.88;;
5762;SDS011;2906;53.282;9.508;2022-07-23T03:51:02;6.97;;;4.65;;
5762;SDS011;2906;53.282;9.508;2022-07-23T03:52:04;6.50;;;4.90;;
5762;SDS011;2906;53.282;9.508;2022-07-23T03:53:06;8.65;;;4.65;;
5762;SDS011;2906;53.282;9.508;2022-07-23T03:54:08;16.73;;;5.40;;
5762;SDS011;2906;53.282;9.508;2022-07-23T03:55:09;6.45;;;4.80;;
5762;SDS011;2906;53.282;9.508;2022-07-23T03:56:11;9.55;;;5.32;;
5762;SDS011;2906;53.282;9.508;2022-07-23T03:57:13;10.93;;;5.18;;
5762;SDS011;2906;53.282;9.508;2022-07-23T03:58:16;17.08;;;5.90;;
5762;SDS011;2906;53.282;9.508;2022-07-23T03:59:17;11.85;;;5.65;;
5762;SDS011;2906;53.282;9.508;2022-07-23T04:00:20;9.10;;;4.70;;
5762;SDS011;2906;53.282;9.508;2022-07-23T04:01:21;11.75;;;5.65;;
5762;SDS011;2906;53.282;9.508;2022-07-23T04:02:23;6.90;;;5.13;;
5762;SDS011;2906;53.282;9.508;2022-07-23T04:03:24;8.07;;;5.10;;
5762;SDS011;2906;53.282;9.508;2022-07-23T04:04:27;9.45;;;4.70;;
5762;SDS011;2906;53.282;9.508;2022-07-23T04:05:28;7.82;;;5.32;;
5762;SDS011;2906;53.282;9.508;2022-07-23T04:06:30;8.50;;;4.70;;
5762;SDS011;2906;53.282;9.508;2022-07-23T04:07:32;8.27;;;5.55;;
5762;SDS011;2906;53.282;9.508;2022-07-23T04:08:34;10.90;;;5.28;;
5762;SDS011;2906;53.282;9.508;2022-07-23T04:09:36;13.73;;;4.97;;
5762;SDS011;2906;53.282;9.508;2022-07-23T04:10:38;11.35;;;4.85;;
5762;SDS011;2906;53.282;9.508;2022-07-23T04:11:39;11.45;;;5.38;;
5762;SDS011;2906;53.282;9.508;2022-07-23T04:12:41;8.95;;;5.13;;
5762;SDS011;2906;53.282;9.508;2022-07-23T04:13:44;7.80;;;5.18;;
5762;SDS011;2906;53.282;9.508;2022-07-23T04:14:46;6.53;;;4.93;;
5762;SDS011;2906;53.282;9.508;2022-07-23T04:15:47;13.02;;;5.50;;
5762;SDS011;2906;53.282;9.508;2022-07-23T04:16:50;14.80;;;5.47;;
5762;SDS011;2906;53.282;9.508;2022-07-23T04:17:51;11.90;;;5.03;;
5762;SDS011;2906;53.282;9.508;2022-07-23T04:18:54;8.85;;;4.88;;
5762;SDS011;2906;53.282;9.508;2022-07-23T04:19:55;8.02;;;4.40;;
5762;SDS011;2906;53.282;9.508;2022-07-23T04:20:57;5.70;;;4.43;;
5762;SDS011;2906;53.282;9.508;2022-07-23T04:21:58;16.05;;;5.07;;
5762;SDS011;2906;53.282;9.508;2022-07-23T04:23:01;9.23;;;4.82;;
5762;SDS011;2906;53.282;9.508;2022-07-23T04:24:02;9.70;;;4.72;;
5762;SDS011;2906;53.282;9.508;2022-07-23T04:25:05;9.20;;;4.68;;
5762;SDS011;2906;53.282;9.508;2022-07-23T04:26:06;10.48;;;5.40;;
5762;SDS011;2906;53.282;9.508;2022-07-23T04:27:08;8.75;;;4.90;;
5762;SDS011;2906;53.282;9.508;2022-07-23T04:28:10;10.18;;;4.55;;
5762;SDS011;2906;53.282;9.508;2022-07-23T04:29:13;7.25;;;4.28;;
5762;SDS011;2906;53.282;9.508;2022-07-23T04:30:14;8.25;;;4.70;;
5762;SDS011;2906;53.282;9.508;2022-07-23T04:31:17;7.00;;;4.70;;
5762;SDS011;2906;53.282;9.508;2022-07-23T04:32:18;16.98;;;4.60;;
5762;SDS011;2906;53.282;9.508;2022-07-23T04:33:20;16.65;;;5.50;;
5762;SDS011;2906;53.282;9.508;2022-07-23T04:34:22;10.52;;;5.00;;
5762;SDS011;2906;53.282;9.508;2022-07-23T04:35:26;12.32;;;4.95;;
5762;SDS011;2906;53.282;9.508;2022-07-23T04:36:27;9.45;;;4.60;;
5762;SDS011;2906;53.282;9.508;2022-07-23T04:37:30;11.48;;;5.95;;
5762;SDS011;2906;53.282;9.508;2022-07-23T04:38:31;7.00;;;4.35;;
5762;SDS011;2906;53.282;9.508;2022-07-23T04:39:33;8.57;;;4.88;;
5762;SDS011;2906;53.282;9.508;2022-07-23T04:40:35;13.57;;;5.22;;
5762;SDS011;2906;53.282;9.508;2022-07-23T04:41:37;10.07;;;4.68;;
5762;SDS011;2906;53.282;9.508;2022-07-23T04:42:38;7.80;;;4.65;;
5762;SDS011;2906;53.282;9.508;2022-07-23T04:43:40;7.97;;;4.30;;
5762;SDS011;2906;53.282;9.508;2022-07-23T04:44:43;8.95;;;4.63;;
5762;SDS011;2906;53.282;9.508;2022-07-23T04:45:45;9.40;;;4.90;;
5762;SDS011;2906;53.282;9.508;2022-07-23T04:46:49;10.88;;;5.85;;
5762;SDS011;2906;53.282;9.508;2022-07-23T04:47:51;7.68;;;5.03;;
5762;SDS011;2906;53.282;9.508;2022-07-23T04:48:53;8.30;;;4.80;;
5762;SDS011;2906;53.282;9.508;2022-07-23T04:49:55;9.70;;;4.88;;
5762;SDS011;2906;53.282;9.508;2022-07-23T04:51:00;9.60;;;4.75;;
5762;SDS011;2906;53.282;9.508;2022-07-23T04:52:02;10.20;;;4.65;;
5762;SDS011;2906;53.282;9.508;2022-07-23T04:53:03;6.93;;;4.22;;
5762;SDS011;2906;53.282;9.508;2022-07-23T04:54:06;6.38;;;4.45;;
5762;SDS011;2906;53.282;9.508;2022-07-23T04:55:07;7.60;;;4.68;;
5762;SDS011;2906;53.282;9.508;2022-07-23T04:56:10;20.85;;;4.55;;
5762;SDS011;2906;53.282;9.508;2022-07-23T04:57:11;9.25;;;4.00;;
5762;SDS011;2906;53.282;9.508;2022-07-23T04:58:13;14.05;;;4.78;;
5762;SDS011;2906;53.282;9.508;2022-07-23T04:59:14;12.85;;;4.85;;
5762;SDS011;2906;53.282;9.508;2022-07-23T05:00:18;7.60;;;4.97;;
5762;SDS011;2906;53.282;9.508;2022-07-23T05:01:19;6.05;;;4.60;;
5762;SDS011;2906;53.282;9.508;2022-07-23T05:02:21;12.25;;;4.95;;
5762;SDS011;2906;53.282;9.508;2022-07-23T05:03:23;6.78;;;4.43;;
5762;SDS011;2906;53.282;9.508;2022-07-23T05:04:25;12.63;;;4.30;;
5762;SDS011;2906;53.282;9.508;2022-07-23T05:05:27;10.43;;;4.43;;
5762;SDS011;2906;53.282;9.508;2022-07-23T05:06:29;8.45;;;4.78;;
5762;SDS011;2906;53.282;9.508;2022-07-23T05:07:30;11.48;;;4.88;;
5762;SDS011;2906;53.282;9.508;2022-07-23T05:08:32;13.57;;;4.30;;
5762;SDS011;2906;53.282;9.508;2022-07-23T05:09:34;11.65;;;4.38;;
5762;SDS011;2906;53.282;9.508;2022-07-23T05:10:36;11.05;;;5.38;;
5762;SDS011;2906;53.282;9.508;2022-07-23T05:11:37;15.98;;;6.07;;
5762;SDS011;2906;53.282;9.508;2022-07-23T05:12:40;8.75;;;5.95;;
5762;SDS011;2906;53.282;9.508;2022-07-23T05:13:41;17.17;;;5.47;;
5762;SDS011;2906;53.282;9.508;2022-07-23T05:14:43;8.40;;;5.22;;
5762;SDS011;2906;53.282;9.508;2022-07-23T05:15:46;17.92;;;6.45;;
5762;SDS011;2906;53.282;9.508;2022-07-23T05:16:48;10.48;;;5.28;;
5762;SDS011;2906;53.282;9.508;2022-07-23T05:17:49;10.95;;;5.65;;
5762;SDS011;2906;53.282;9.508;2022-07-23T05:18:52;15.38;;;5.15;;
5762;SDS011;2906;53.282;9.508;2022-07-23T05:19:55;19.10;;;5.30;;
5762;SDS011;2906;53.282;9.508;2022-07-23T05:20:56;10.75;;;4.80;;
5762;SDS011;2906;53.282;9.508;2022-07-23T05:21:58;7.40;;;4.45;;
5762;SDS011;2906;53.282;9.508;2022-07-23T05:22:59;9.18;;;4.05;;
5762;SDS011;2906;53.282;9.508;2022-07-23T05:24:01;11.85;;;4.53;;
5762;SDS011;2906;53.282;9.508;2022-07-23T05:25:03;13.75;;;4.50;;
5762;SDS011;2906;53.282;9.508;2022-07-23T05:26:05;7.35;;;4.30;;
5762;SDS011;2906;53.282;9.508;2022-07-23T05:27:07;5.60;;;4.38;;
5762;SDS011;2906;53.282;9.508;2022-07-23T05:28:09;8.07;;;4.20;;
5762;SDS011;2906;53.282;9.508;2022-07-23T05:29:10;11.82;;;4.68;;
5762;SDS011;2906;53.282;9.508;2022-07-23T05:30:12;11.10;;;4.40;;
5762;SDS011;2906;53.282;9.508;2022-07-23T05:31:15;8.07;;;4.05;;
5762;SDS011;2906;53.282;9.508;2022-07-23T05:32:17;7.82;;;4.50;;
5762;SDS011;2906;53.282;9.508;2022-07-23T05:33:19;10.90;;;5.18;;
5762;SDS011;2906;53.282;9.508;2022-07-23T05:34:21;15.30;;;4.63;;
5762;SDS011;2906;53.282;9.508;2022-07-23T05:35:23;8.32;;;4.25;;
5762;SDS011;2906;53.282;9.508;2022-07-23T05:36:25;7.05;;;4.82;;
5762;SDS011;2906;53.282;9.508;2022-07-23T05:37:27;10.13;;;5.18;;
5762;SDS011;2906;53.282;9.508;2022-07-23T05:38:28;7.38;;;4.10;;
5762;SDS011;2906;53.282;9.508;2022-07-23T05:39:31;7.28;;;4.57;;
5762;SDS011;2906;53.282;9.508;2022-07-23T05:40:32;13.45;;;4.43;;
5762;SDS011;2906;53.282;9.508;2022-07-23T05:41:34;7.55;;;4.05;;
5762;SDS011;2906;53.282;9.508;2022-07-23T05:42:36;12.05;;;3.78;;
5762;SDS011;2906;53.282;9.508;2022-07-23T05:43:38;14.45;;;4.32;;
5762;SDS011;2906;53.282;9.508;2022-07-23T05:44:40;5.07;;;4.32;;
5762;SDS011;2906;53.282;9.508;2022-07-23T05:45:42;10.57;;;4.10;;
5762;SDS011;2906;53.282;9.508;2022-07-23T05:46:44;15.25;;;4.97;;
5762;SDS011;2906;53.282;9.508;2022-07-23T05:47:47;7.13;;;4.15;;
5762;SDS011;2906;53.282;9.508;2022-07-23T05:48:49;7.20;;;3.95;;
5762;SDS011;2906;53.282;9.508;2022-07-23T05:49:51;4.90;;;3.75;;
5762;SDS011;2906;53.282;9.508;2022-07-23T05:50:52;11.63;;;4.22;;
5762;SDS011;2906;53.282;9.508;2022-07-23T05:51:55;9.27;;;3.20;;
5762;SDS011;2906;53.282;9.508;2022-07-23T05:52:56;10.43;;;3.60;;
5762;SDS011;2906;53.282;9.508;2022-07-23T05:53:58;8.23;;;4.18;;
5762;SDS011;2906;53.282;9.508;2022-07-23T05:54:59;14.93;;;3.85;;
5762;SDS011;2906;53.282;9.508;2022-07-23T05:56:02;7.63;;;3.33;;
5762;SDS011;2906;53.282;9.508;2022-07-23T05:57:03;6.95;;;3.30;;
5762;SDS011;2906;53.282;9.508;2022-07-23T05:58:05;8.32;;;3.20;;
5762;SDS011;2906;53.282;9.508;2022-07-23T05:59:07;5.65;;;3.15;;
5762;SDS011;2906;53.282;9.508;2022-07-23T06:00:10;13.13;;;3.40;;
5762;SDS011;2906;53.282;9.508;2022-07-23T06:01:11;8.70;;;3.03;;
5762;SDS011;2906;53.282;9.508;2022-07-23T06:02:15;5.38;;;2.80;;
5762;SDS011;2906;53.282;9.508;2022-07-23T06:03:16;7.53;;;3.05;;
5762;SDS011;2906;53.282;9.508;2022-07-23T06:04:20;6.18;;;2.88;;
5762;SDS011;2906;53.282;9.508;2022-07-23T06:05:21;7.03;;;3.00;;
5762;SDS011;2906;53.282;9.508;2022-07-23T06:06:23;10.80;;;2.97;;
5762;SDS011;2906;53.282;9.508;2022-07-23T06:07:25;5.20;;;2.95;;
5762;SDS011;2906;53.282;9.508;2022-07-23T06:08:27;6.70;;;2.70;;
5762;SDS011;2906;53.282;9.508;2022-07-23T06:09:29;7.57;;;3.25;;
5762;SDS011;2906;53.282;9.508;2022-07-23T06:10:31;6.53;;;2.95;;
5762;SDS011;2906;53.282;9.508;2022-07-23T06:11:32;9.00;;;3.10;;
5762;SDS011;2906;53.282;9.508;2022-07-23T06:12:35;9.63;;;3.05;;
5762;SDS011;2906;53.282;9.508;2022-07-23T06:13:36;8.75;;;3.55;;
5762;SDS011;2906;53.282;9.508;2022-07-23T06:14:38;11.70;;;3.10;;
5762;SDS011;2906;53.282;9.508;2022-07-23T06:15:39;5.10;;;2.75;;
5762;SDS011;2906;53.282;9.508;2022-07-23T06:16:42;6.90;;;3.15;;
5762;SDS011;2906;53.282;9.508;2022-07-23T06:17:44;8.68;;;2.90;;
5762;SDS011;2906;53.282;9.508;2022-07-23T06:18:46;14.25;;;2.72;;
5762;SDS011;2906;53.282;9.508;2022-07-23T06:19:48;8.85;;;2.90;;
5762;SDS011;2906;53.282;9.508;2022-07-23T06:20:50;7.15;;;2.83;;
5762;SDS011;2906;53.282;9.508;2022-07-23T06:21:51;7.35;;;2.88;;
5762;SDS011;2906;53.282;9.508;2022-07-23T06:22:54;6.95;;;3.17;;